sensor_id;sensor_type;location;lat;lon;timestamp;pressure;altitude;pressure_sealevel;temperature;humidity
21234;BME280;10774;42.178;26.578;2022-07-10T00:01:04;99402.81;;;20.84;74.50
21234;BME280;10774;42.178;26.578;2022-07-10T00:03:29;99410.63;;;20.87;74.34
21234;BME280;10774;42.178;26.578;2022-07-10T00:05:54;99427.16;;;20.94;74.43
21234;BME280;10774;42.178;26.578;2022-07-10T00:08:20;99422.88;;;21.00;74.02
21234;BME280;10774;42.178;26.578;2022-07-10T00:10:45;99411.44;;;20.96;73.88
21234;BME280;10774;42.178;26.578;2022-07-10T00:13:11;99401.34;;;21.05;73.66
21234;BME280;10774;42.178;26.578;2022-07-10T00:15:36;99408.00;;;21.02;74.03
21234;BME280;10774;42.178;26.578;2022-07-10T00:18:02;99415.78;;;21.13;74.49
21234;BME280;10774;42.178;26.578;2022-07-10T00:20:27;99409.22;;;21.00;75.86
21234;BME280;10774;42.178;26.578;2022-07-10T00:22:52;99409.00;;;21.09;75.72
21234;BME280;10774;42.178;26.578;2022-07-10T00:25:18;99413.44;;;21.10;75.60
21234;BME280;10774;42.178;26.578;2022-07-10T00:27:43;99415.22;;;20.95;77.21
21234;BME280;10774;42.178;26.578;2022-07-10T00:30:10;99432.28;;;20.89;77.93
21234;BME280;10774;42.178;26.578;2022-07-10T00:32:36;99418.66;;;20.89;78.29
21234;BME280;10774;42.178;26.578;2022-07-10T00:35:03;99425.16;;;20.80;78.61
21234;BME280;10774;42.178;26.578;2022-07-10T00:37:29;99391.44;;;20.73;78.50
21234;BME280;10774;42.178;26.578;2022-07-10T00:39:54;99401.28;;;20.82;79.44
21234;BME280;10774;42.178;26.578;2022-07-10T00:42:20;99412.03;;;20.83;80.01
21234;BME280;10774;42.178;26.578;2022-07-10T00:44:46;99400.78;;;20.78;81.74
21234;BME280;10774;42.178;26.578;2022-07-10T00:47:12;99409.13;;;20.85;80.05
21234;BME280;10774;42.178;26.578;2022-07-10T00:49:39;99406.91;;;20.88;79.99
21234;BME280;10774;42.178;26.578;2022-07-10T00:52:11;99397.16;;;20.86;78.35
21234;BME280;10774;42.178;26.578;2022-07-10T00:54:37;99409.06;;;20.93;78.92
21234;BME280;10774;42.178;26.578;2022-07-10T00:57:06;99401.25;;;20.90;77.75
21234;BME280;10774;42.178;26.578;2022-07-10T00:59:32;99395.41;;;20.93;77.46
21234;BME280;10774;42.178;26.578;2022-07-10T01:01:58;99401.38;;;20.97;77.65
21234;BME280;10774;42.178;26.578;2022-07-10T01:04:24;99417.84;;;21.11;77.26
21234;BME280;10774;42.178;26.578;2022-07-10T01:06:49;99396.25;;;21.02;76.73
21234;BME280;10774;42.178;26.578;2022-07-10T01:09:15;99405.56;;;21.15;76.41
21234;BME280;10774;42.178;26.578;2022-07-10T01:11:40;99414.47;;;21.09;77.12
21234;BME280;10774;42.178;26.578;2022-07-10T01:14:06;99416.63;;;21.14;76.65
21234;BME280;10774;42.178;26.578;2022-07-10T01:16:32;99402.09;;;21.22;75.87
21234;BME280;10774;42.178;26.578;2022-07-10T01:18:58;99409.50;;;21.44;75.18
21234;BME280;10774;42.178;26.578;2022-07-10T01:21:31;99417.25;;;21.24;75.71
21234;BME280;10774;42.178;26.578;2022-07-10T01:23:58;99421.22;;;21.22;76.20
21234;BME280;10774;42.178;26.578;2022-07-10T01:26:25;99408.69;;;21.35;75.37
21234;BME280;10774;42.178;26.578;2022-07-10T01:28:51;99405.16;;;21.27;76.25
21234;BME280;10774;42.178;26.578;2022-07-10T01:31:18;99401.91;;;21.31;75.38
21234;BME280;10774;42.178;26.578;2022-07-10T01:33:45;99413.31;;;21.35;75.15
21234;BME280;10774;42.178;26.578;2022-07-10T01:36:11;99404.81;;;21.30;75.37
21234;BME280;10774;42.178;26.578;2022-07-10T01:38:36;99411.38;;;21.44;75.02
21234;BME280;10774;42.178;26.578;2022-07-10T01:41:02;99405.69;;;21.30;75.98
21234;BME280;10774;42.178;26.578;2022-07-10T01:43:27;99415.03;;;21.36;75.25
21234;BME280;10774;42.178;26.578;2022-07-10T01:45:52;99405.06;;;21.12;76.14
21234;BME280;10774;42.178;26.578;2022-07-10T01:48:18;99417.44;;;21.23;76.20
21234;BME280;10774;42.178;26.578;2022-07-10T01:50:43;99408.16;;;21.40;75.57
21234;BME280;10774;42.178;26.578;2022-07-10T01:53:09;99412.34;;;21.51;74.91
21234;BME280;10774;42.178;26.578;2022-07-10T01:55:36;99406.41;;;21.47;74.87
21234;BME280;10774;42.178;26.578;2022-07-10T01:58:02;99421.09;;;21.46;75.03
21234;BME280;10774;42.178;26.578;2022-07-10T02:00:28;99410.53;;;21.43;75.23
21234;BME280;10774;42.178;26.578;2022-07-10T02:02:53;99424.50;;;21.48;74.74
21234;BME280;10774;42.178;26.578;2022-07-10T02:05:37;99420.78;;;21.41;75.47
21234;BME280;10774;42.178;26.578;2022-07-10T02:08:03;99409.88;;;21.41;74.80
21234;BME280;10774;42.178;26.578;2022-07-10T02:10:29;99427.63;;;21.37;75.37
21234;BME280;10774;42.178;26.578;2022-07-10T02:12:54;99418.94;;;21.56;74.49
21234;BME280;10774;42.178;26.578;2022-07-10T02:15:21;99431.91;;;21.85;73.14
21234;BME280;10774;42.178;26.578;2022-07-10T02:17:47;99428.84;;;21.80;72.67
21234;BME280;10774;42.178;26.578;2022-07-10T02:20:12;99433.09;;;21.83;72.79
21234;BME280;10774;42.178;26.578;2022-07-10T02:22:38;99443.31;;;22.12;72.12
21234;BME280;10774;42.178;26.578;2022-07-10T02:25:03;99434.50;;;22.02;71.50
21234;BME280;10774;42.178;26.578;2022-07-10T02:27:29;99444.47;;;22.17;70.53
21234;BME280;10774;42.178;26.578;2022-07-10T02:29:54;99453.63;;;22.02;71.57
21234;BME280;10774;42.178;26.578;2022-07-10T02:32:20;99422.66;;;22.09;70.79
21234;BME280;10774;42.178;26.578;2022-07-10T02:34:45;99443.72;;;22.24;70.23
21234;BME280;10774;42.178;26.578;2022-07-10T02:37:11;99441.94;;;22.31;69.83
21234;BME280;10774;42.178;26.578;2022-07-10T02:39:36;99440.13;;;22.23;69.93
21234;BME280;10774;42.178;26.578;2022-07-10T02:42:02;99431.09;;;22.37;69.19
21234;BME280;10774;42.178;26.578;2022-07-10T02:44:27;99433.81;;;22.23;69.75
21234;BME280;10774;42.178;26.578;2022-07-10T02:46:54;99442.25;;;22.36;69.85
21234;BME280;10774;42.178;26.578;2022-07-10T02:49:19;99441.19;;;22.37;69.51
21234;BME280;10774;42.178;26.578;2022-07-10T02:51:45;99432.16;;;22.36;69.55
21234;BME280;10774;42.178;26.578;2022-07-10T02:54:10;99429.84;;;21.64;72.66
21234;BME280;10774;42.178;26.578;2022-07-10T02:56:36;99439.94;;;22.02;71.37
21234;BME280;10774;42.178;26.578;2022-07-10T02:59:02;99434.28;;;22.03;72.15
21234;BME280;10774;42.178;26.578;2022-07-10T03:01:27;99441.59;;;21.88;73.02
21234;BME280;10774;42.178;26.578;2022-07-10T03:03:53;99430.41;;;21.98;72.93
21234;BME280;10774;42.178;26.578;2022-07-10T03:06:18;99425.25;;;21.34;74.71
21234;BME280;10774;42.178;26.578;2022-07-10T03:08:44;99442.13;;;21.29;76.02
21234;BME280;10774;42.178;26.578;2022-07-10T03:11:09;99439.94;;;21.25;76.23
21234;BME280;10774;42.178;26.578;2022-07-10T03:13:35;99435.28;;;21.02;77.09
21234;BME280;10774;42.178;26.578;2022-07-10T03:16:00;99437.16;;;21.10;76.83
21234;BME280;10774;42.178;26.578;2022-07-10T03:18:25;99413.84;;;20.99;76.96
21234;BME280;10774;42.178;26.578;2022-07-10T03:20:51;99441.13;;;20.99;75.88
21234;BME280;10774;42.178;26.578;2022-07-10T03:23:16;99424.81;;;20.83;76.14
21234;BME280;10774;42.178;26.578;2022-07-10T03:25:42;99447.38;;;21.08;74.84
21234;BME280;10774;42.178;26.578;2022-07-10T03:28:07;99427.50;;;20.91;75.45
21234;BME280;10774;42.178;26.578;2022-07-10T03:30:33;99434.00;;;20.82;75.99
21234;BME280;10774;42.178;26.578;2022-07-10T03:32:59;99433.31;;;20.88;74.71
21234;BME280;10774;42.178;26.578;2022-07-10T03:35:24;99451.72;;;20.86;75.21
21234;BME280;10774;42.178;26.578;2022-07-10T03:37:51;99458.53;;;20.90;73.01
21234;BME280;10774;42.178;26.578;2022-07-10T03:40:16;99445.34;;;21.02;73.15
21234;BME280;10774;42.178;26.578;2022-07-10T03:42:42;99442.09;;;21.06;72.12
21234;BME280;10774;42.178;26.578;2022-07-10T03:45:08;99448.28;;;21.00;72.35
21234;BME280;10774;42.178;26.578;2022-07-10T03:47:33;99451.66;;;21.02;72.15
21234;BME280;10774;42.178;26.578;2022-07-10T03:49:58;99427.94;;;21.03;71.61
21234;BME280;10774;42.178;26.578;2022-07-10T03:52:24;99447.38;;;21.08;71.45
21234;BME280;10774;42.178;26.578;2022-07-10T03:54:49;99438.34;;;21.07;71.55
21234;BME280;10774;42.178;26.578;2022-07-10T03:57:15;99443.78;;;21.07;71.91
21234;BME280;10774;42.178;26.578;2022-07-10T03:59:58;99446.19;;;21.02;71.99
21234;BME280;10774;42.178;26.578;2022-07-10T04:02:24;99447.75;;;21.05;72.01
21234;BME280;10774;42.178;26.578;2022-07-10T04:04:49;99445.22;;;20.95;72.63
21234;BME280;10774;42.178;26.578;2022-07-10T04:07:15;99446.72;;;20.98;72.75
21234;BME280;10774;42.178;26.578;2022-07-10T04:09:41;99440.81;;;20.86;73.18
21234;BME280;10774;42.178;26.578;2022-07-10T04:12:07;99443.91;;;20.83;72.74
21234;BME280;10774;42.178;26.578;2022-07-10T04:14:33;99437.06;;;20.87;72.76
21234;BME280;10774;42.178;26.578;2022-07-10T04:16:58;99435.66;;;20.99;72.92
21234;BME280;10774;42.178;26.578;2022-07-10T04:19:23;99438.91;;;20.95;73.32
21234;BME280;10774;42.178;26.578;2022-07-10T04:21:49;99436.34;;;20.93;71.22
21234;BME280;10774;42.178;26.578;2022-07-10T04:24:14;99439.25;;;21.00;72.37
21234;BME280;10774;42.178;26.578;2022-07-10T04:26:40;99437.69;;;20.97;72.34
21234;BME280;10774;42.178;26.578;2022-07-10T04:29:05;99426.47;;;20.92;71.89
21234;BME280;10774;42.178;26.578;2022-07-10T04:31:31;99450.41;;;21.13;71.79
21234;BME280;10774;42.178;26.578;2022-07-10T04:33:56;99438.16;;;21.09;72.57
21234;BME280;10774;42.178;26.578;2022-07-10T04:36:25;99430.84;;;21.09;71.32
21234;BME280;10774;42.178;26.578;2022-07-10T04:38:50;99436.56;;;21.23;70.64
21234;BME280;10774;42.178;26.578;2022-07-10T04:41:16;99441.75;;;21.09;70.66
21234;BME280;10774;42.178;26.578;2022-07-10T04:43:41;99431.53;;;21.03;71.23
21234;BME280;10774;42.178;26.578;2022-07-10T04:46:06;99438.44;;;21.22;70.71
21234;BME280;10774;42.178;26.578;2022-07-10T04:48:32;99434.13;;;21.36;69.23
21234;BME280;10774;42.178;26.578;2022-07-10T04:50:58;99448.03;;;21.49;68.55
21234;BME280;10774;42.178;26.578;2022-07-10T04:53:23;99437.91;;;21.58;68.22
21234;BME280;10774;42.178;26.578;2022-07-10T04:55:49;99455.75;;;21.69;66.93
21234;BME280;10774;42.178;26.578;2022-07-10T04:58:15;99446.84;;;21.75;67.84
21234;BME280;10774;42.178;26.578;2022-07-10T05:00:40;99449.22;;;21.78;66.56
21234;BME280;10774;42.178;26.578;2022-07-10T05:03:05;99449.75;;;21.96;66.19
21234;BME280;10774;42.178;26.578;2022-07-10T05:05:31;99448.78;;;21.89;65.91
21234;BME280;10774;42.178;26.578;2022-07-10T05:07:56;99460.50;;;21.75;67.07
21234;BME280;10774;42.178;26.578;2022-07-10T05:10:22;99448.00;;;21.57;67.05
21234;BME280;10774;42.178;26.578;2022-07-10T05:12:48;99462.72;;;21.48;67.90
21234;BME280;10774;42.178;26.578;2022-07-10T05:15:13;99466.41;;;21.55;68.53
21234;BME280;10774;42.178;26.578;2022-07-10T05:17:39;99445.00;;;21.44;68.28
21234;BME280;10774;42.178;26.578;2022-07-10T05:20:05;99466.41;;;21.55;67.95
21234;BME280;10774;42.178;26.578;2022-07-10T05:22:30;99444.16;;;21.44;68.04
21234;BME280;10774;42.178;26.578;2022-07-10T05:24:56;99464.28;;;21.43;68.55
21234;BME280;10774;42.178;26.578;2022-07-10T05:27:21;99467.91;;;21.35;68.73
21234;BME280;10774;42.178;26.578;2022-07-10T05:29:47;99467.22;;;21.41;68.89
21234;BME280;10774;42.178;26.578;2022-07-10T05:32:13;99467.91;;;21.35;68.91
21234;BME280;10774;42.178;26.578;2022-07-10T05:34:38;99465.53;;;21.24;70.23
21234;BME280;10774;42.178;26.578;2022-07-10T05:37:04;99464.91;;;21.13;69.97
21234;BME280;10774;42.178;26.578;2022-07-10T05:39:30;99453.34;;;21.11;70.42
21234;BME280;10774;42.178;26.578;2022-07-10T05:41:55;99461.19;;;21.46;69.53
21234;BME280;10774;42.178;26.578;2022-07-10T05:44:23;99460.09;;;21.55;69.32
21234;BME280;10774;42.178;26.578;2022-07-10T05:46:49;99464.88;;;21.84;68.02
21234;BME280;10774;42.178;26.578;2022-07-10T05:49:14;99452.38;;;21.89;67.58
21234;BME280;10774;42.178;26.578;2022-07-10T05:51:40;99449.25;;;21.92;66.99
21234;BME280;10774;42.178;26.578;2022-07-10T05:54:05;99460.66;;;21.96;65.80
21234;BME280;10774;42.178;26.578;2022-07-10T05:56:31;99450.22;;;22.00;65.48
21234;BME280;10774;42.178;26.578;2022-07-10T05:58:56;99455.56;;;21.93;65.93
21234;BME280;10774;42.178;26.578;2022-07-10T06:01:22;99451.06;;;22.00;65.94
21234;BME280;10774;42.178;26.578;2022-07-10T06:03:48;99438.91;;;22.03;65.19
21234;BME280;10774;42.178;26.578;2022-07-10T06:06:14;99447.19;;;22.17;64.75
21234;BME280;10774;42.178;26.578;2022-07-10T06:08:43;99458.56;;;22.44;64.03
21234;BME280;10774;42.178;26.578;2022-07-10T06:11:08;99454.78;;;22.45;63.52
21234;BME280;10774;42.178;26.578;2022-07-10T06:13:34;99448.53;;;22.22;64.10
21234;BME280;10774;42.178;26.578;2022-07-10T06:15:59;99451.56;;;22.56;63.83
21234;BME280;10774;42.178;26.578;2022-07-10T06:18:25;99450.38;;;23.18;60.90
21234;BME280;10774;42.178;26.578;2022-07-10T06:20:50;99464.53;;;23.21;59.63
21234;BME280;10774;42.178;26.578;2022-07-10T06:23:15;99453.59;;;22.92;60.38
21234;BME280;10774;42.178;26.578;2022-07-10T06:25:41;99461.06;;;22.98;59.00
21234;BME280;10774;42.178;26.578;2022-07-10T06:30:32;99463.03;;;23.55;57.21
21234;BME280;10774;42.178;26.578;2022-07-10T06:32:57;99455.25;;;23.73;56.77
21234;BME280;10774;42.178;26.578;2022-07-10T06:35:23;99453.53;;;23.72;54.48
21234;BME280;10774;42.178;26.578;2022-07-10T06:37:48;99450.38;;;23.54;56.16
21234;BME280;10774;42.178;26.578;2022-07-10T06:40:14;99461.28;;;23.33;56.31
21234;BME280;10774;42.178;26.578;2022-07-10T06:42:41;99453.28;;;23.67;55.12
21234;BME280;10774;42.178;26.578;2022-07-10T06:45:07;99454.53;;;23.86;54.05
21234;BME280;10774;42.178;26.578;2022-07-10T06:47:33;99453.69;;;23.86;54.46
21234;BME280;10774;42.178;26.578;2022-07-10T06:50:17;99453.75;;;23.71;55.30
21234;BME280;10774;42.178;26.578;2022-07-10T06:52:42;99451.84;;;23.93;55.44
21234;BME280;10774;42.178;26.578;2022-07-10T06:55:09;99458.19;;;23.93;53.71
21234;BME280;10774;42.178;26.578;2022-07-10T06:57:34;99447.31;;;23.79;53.68
21234;BME280;10774;42.178;26.578;2022-07-10T07:00:00;99456.38;;;23.79;53.26
21234;BME280;10774;42.178;26.578;2022-07-10T07:02:26;99441.03;;;23.85;54.50
21234;BME280;10774;42.178;26.578;2022-07-10T07:04:52;99452.09;;;23.98;54.14
21234;BME280;10774;42.178;26.578;2022-07-10T07:07:17;99445.34;;;23.94;54.70
21234;BME280;10774;42.178;26.578;2022-07-10T07:09:43;99423.19;;;24.17;53.13
21234;BME280;10774;42.178;26.578;2022-07-10T07:12:09;99443.97;;;24.33;51.92
21234;BME280;10774;42.178;26.578;2022-07-10T07:14:35;99446.22;;;24.22;53.07
21234;BME280;10774;42.178;26.578;2022-07-10T07:17:01;99456.94;;;24.17;53.26
21234;BME280;10774;42.178;26.578;2022-07-10T07:19:32;99436.53;;;24.48;53.43
21234;BME280;10774;42.178;26.578;2022-07-10T07:22:19;99454.06;;;24.88;52.44
21234;BME280;10774;42.178;26.578;2022-07-10T07:25:04;99453.84;;;24.83;49.58
21234;BME280;10774;42.178;26.578;2022-07-10T07:27:29;99436.66;;;24.68;50.26
21234;BME280;10774;42.178;26.578;2022-07-10T07:29:55;99452.31;;;24.74;51.37
21234;BME280;10774;42.178;26.578;2022-07-10T07:32:20;99438.56;;;24.39;50.70
21234;BME280;10774;42.178;26.578;2022-07-10T07:34:46;99430.75;;;24.36;51.52
21234;BME280;10774;42.178;26.578;2022-07-10T07:37:11;99442.88;;;24.48;49.77
21234;BME280;10774;42.178;26.578;2022-07-10T07:39:37;99444.91;;;24.40;49.74
21234;BME280;10774;42.178;26.578;2022-07-10T07:42:03;99450.25;;;24.48;49.86
21234;BME280;10774;42.178;26.578;2022-07-10T07:44:29;99451.66;;;24.72;49.94
21234;BME280;10774;42.178;26.578;2022-07-10T07:46:55;99459.06;;;24.71;49.07
21234;BME280;10774;42.178;26.578;2022-07-10T07:49:20;99466.59;;;24.97;49.19
21234;BME280;10774;42.178;26.578;2022-07-10T07:51:46;99461.41;;;25.09;49.24
21234;BME280;10774;42.178;26.578;2022-07-10T07:54:12;99465.28;;;25.21;47.58
21234;BME280;10774;42.178;26.578;2022-07-10T07:56:38;99458.13;;;25.27;46.72
21234;BME280;10774;42.178;26.578;2022-07-10T07:59:03;99457.38;;;25.60;46.99
21234;BME280;10774;42.178;26.578;2022-07-10T08:01:29;99461.78;;;25.47;46.54
21234;BME280;10774;42.178;26.578;2022-07-10T08:03:54;99469.72;;;25.77;47.75
21234;BME280;10774;42.178;26.578;2022-07-10T08:06:20;99464.16;;;25.64;47.09
21234;BME280;10774;42.178;26.578;2022-07-10T08:08:46;99464.69;;;26.20;45.20
21234;BME280;10774;42.178;26.578;2022-07-10T08:11:11;99453.31;;;26.43;42.36
21234;BME280;10774;42.178;26.578;2022-07-10T08:13:37;99451.81;;;26.21;43.79
21234;BME280;10774;42.178;26.578;2022-07-10T08:16:02;99448.19;;;26.20;44.78
21234;BME280;10774;42.178;26.578;2022-07-10T08:18:28;99459.56;;;26.83;42.44
21234;BME280;10774;42.178;26.578;2022-07-10T08:20:53;99459.59;;;26.30;43.99
21234;BME280;10774;42.178;26.578;2022-07-10T08:23:18;99442.66;;;25.87;42.16
21234;BME280;10774;42.178;26.578;2022-07-10T08:25:44;99465.28;;;25.83;42.66
21234;BME280;10774;42.178;26.578;2022-07-10T08:28:09;99461.31;;;26.05;43.02
21234;BME280;10774;42.178;26.578;2022-07-10T08:30:38;99465.56;;;26.27;42.51
21234;BME280;10774;42.178;26.578;2022-07-10T08:33:03;99450.50;;;26.30;43.76
21234;BME280;10774;42.178;26.578;2022-07-10T08:35:29;99459.19;;;26.33;44.88
21234;BME280;10774;42.178;26.578;2022-07-10T08:37:55;99465.94;;;26.77;43.18
21234;BME280;10774;42.178;26.578;2022-07-10T08:40:21;99468.91;;;26.82;42.08
21234;BME280;10774;42.178;26.578;2022-07-10T08:42:47;99468.31;;;26.61;42.72
21234;BME280;10774;42.178;26.578;2022-07-10T08:45:13;99435.72;;;26.44;42.73
21234;BME280;10774;42.178;26.578;2022-07-10T08:47:40;99446.00;;;26.89;42.44
21234;BME280;10774;42.178;26.578;2022-07-10T08:50:18;99466.91;;;27.74;39.97
21234;BME280;10774;42.178;26.578;2022-07-10T08:53:01;99453.00;;;26.91;40.95
21234;BME280;10774;42.178;26.578;2022-07-10T08:55:27;99452.22;;;27.42;39.08
21234;BME280;10774;42.178;26.578;2022-07-10T08:57:54;99468.16;;;27.78;40.17
21234;BME280;10774;42.178;26.578;2022-07-10T09:00:22;99451.56;;;27.85;38.91
21234;BME280;10774;42.178;26.578;2022-07-10T09:02:47;99465.63;;;27.77;38.14
21234;BME280;10774;42.178;26.578;2022-07-10T09:05:13;99441.56;;;26.88;39.00
21234;BME280;10774;42.178;26.578;2022-07-10T09:07:40;99456.16;;;27.08;40.06
21234;BME280;10774;42.178;26.578;2022-07-10T09:10:08;99429.09;;;26.72;40.91
21234;BME280;10774;42.178;26.578;2022-07-10T09:13:01;99461.63;;;27.21;40.44
21234;BME280;10774;42.178;26.578;2022-07-10T09:15:31;99440.19;;;27.23;40.31
21234;BME280;10774;42.178;26.578;2022-07-10T09:18:03;99462.88;;;27.32;40.58
21234;BME280;10774;42.178;26.578;2022-07-10T09:20:40;99437.41;;;27.30;40.42
21234;BME280;10774;42.178;26.578;2022-07-10T09:25:39;99452.84;;;27.82;38.68
21234;BME280;10774;42.178;26.578;2022-07-10T09:28:05;99460.44;;;27.49;39.13
21234;BME280;10774;42.178;26.578;2022-07-10T09:30:40;99447.78;;;26.56;40.50
21234;BME280;10774;42.178;26.578;2022-07-10T09:33:28;99458.38;;;26.59;40.98
21234;BME280;10774;42.178;26.578;2022-07-10T09:41:30;99455.81;;;27.43;40.29
21234;BME280;10774;42.178;26.578;2022-07-10T09:44:00;99442.97;;;28.00;39.58
21234;BME280;10774;42.178;26.578;2022-07-10T09:46:35;99456.25;;;27.40;39.89
21234;BME280;10774;42.178;26.578;2022-07-10T09:51:38;99454.41;;;27.20;40.52
21234;BME280;10774;42.178;26.578;2022-07-10T09:54:06;99455.44;;;27.77;39.82
21234;BME280;10774;42.178;26.578;2022-07-10T09:56:39;99450.06;;;27.44;38.75
21234;BME280;10774;42.178;26.578;2022-07-10T09:59:09;99425.44;;;27.49;38.88
21234;BME280;10774;42.178;26.578;2022-07-10T10:01:36;99444.25;;;27.14;39.29
21234;BME280;10774;42.178;26.578;2022-07-10T10:04:04;99451.84;;;27.25;39.86
21234;BME280;10774;42.178;26.578;2022-07-10T10:06:30;99431.91;;;27.68;38.83
21234;BME280;10774;42.178;26.578;2022-07-10T10:09:02;99440.34;;;28.11;37.45
21234;BME280;10774;42.178;26.578;2022-07-10T10:11:31;99457.75;;;27.80;37.90
21234;BME280;10774;42.178;26.578;2022-07-10T10:13:57;99453.69;;;27.83;37.84
21234;BME280;10774;42.178;26.578;2022-07-10T10:16:25;99444.75;;;27.87;37.54
21234;BME280;10774;42.178;26.578;2022-07-10T10:18:51;99451.41;;;28.36;37.33
21234;BME280;10774;42.178;26.578;2022-07-10T10:21:35;99454.13;;;28.86;37.70
21234;BME280;10774;42.178;26.578;2022-07-10T10:24:02;99434.94;;;28.91;36.51
21234;BME280;10774;42.178;26.578;2022-07-10T10:26:28;99442.44;;;28.16;36.88
21234;BME280;10774;42.178;26.578;2022-07-10T10:28:56;99432.53;;;27.77;36.82
21234;BME280;10774;42.178;26.578;2022-07-10T10:31:24;99447.94;;;28.16;36.77
21234;BME280;10774;42.178;26.578;2022-07-10T10:33:54;99446.75;;;28.05;36.65
21234;BME280;10774;42.178;26.578;2022-07-10T10:39:19;99418.13;;;27.75;36.25
21234;BME280;10774;42.178;26.578;2022-07-10T10:41:52;99422.97;;;27.79;36.73
21234;BME280;10774;42.178;26.578;2022-07-10T10:46:54;99427.44;;;28.99;35.58
21234;BME280;10774;42.178;26.578;2022-07-10T10:49:26;99437.34;;;29.06;35.04
21234;BME280;10774;42.178;26.578;2022-07-10T10:54:58;99440.63;;;29.33;34.48
21234;BME280;10774;42.178;26.578;2022-07-10T10:57:15;99422.03;;;28.85;35.02
21234;BME280;10774;42.178;26.578;2022-07-10T10:59:48;99430.16;;;29.35;34.05
21234;BME280;10774;42.178;26.578;2022-07-10T11:02:40;99443.50;;;29.57;33.33
21234;BME280;10774;42.178;26.578;2022-07-10T11:08:04;99423.03;;;29.28;34.38
21234;BME280;10774;42.178;26.578;2022-07-10T11:12:59;99423.38;;;28.58;35.81
21234;BME280;10774;42.178;26.578;2022-07-10T11:15:26;99429.34;;;28.05;37.17
21234;BME280;10774;42.178;26.578;2022-07-10T11:17:56;99419.47;;;27.59;38.56
21234;BME280;10774;42.178;26.578;2022-07-10T11:20:22;99415.19;;;27.63;38.81
21234;BME280;10774;42.178;26.578;2022-07-10T11:23:43;99430.63;;;27.32;39.62
21234;BME280;10774;42.178;26.578;2022-07-10T11:29:19;99408.00;;;27.94;38.65
21234;BME280;10774;42.178;26.578;2022-07-10T11:31:55;99417.78;;;27.58;39.12
21234;BME280;10774;42.178;26.578;2022-07-10T11:34:23;99425.88;;;27.53;39.22
21234;BME280;10774;42.178;26.578;2022-07-10T11:36:59;99404.94;;;27.39;40.12
21234;BME280;10774;42.178;26.578;2022-07-10T11:39:24;99426.22;;;27.63;39.50
21234;BME280;10774;42.178;26.578;2022-07-10T11:41:50;99424.59;;;27.49;40.04
21234;BME280;10774;42.178;26.578;2022-07-10T11:44:17;99422.78;;;27.74;39.60
21234;BME280;10774;42.178;26.578;2022-07-10T11:46:43;99430.84;;;27.69;39.38
21234;BME280;10774;42.178;26.578;2022-07-10T11:49:10;99432.78;;;28.00;38.69
21234;BME280;10774;42.178;26.578;2022-07-10T11:51:38;99414.69;;;27.79;39.59
21234;BME280;10774;42.178;26.578;2022-07-10T11:56:35;99421.72;;;27.37;40.32
21234;BME280;10774;42.178;26.578;2022-07-10T11:59:06;99428.88;;;27.45;40.13
21234;BME280;10774;42.178;26.578;2022-07-10T12:01:43;99444.59;;;27.31;40.84
21234;BME280;10774;42.178;26.578;2022-07-10T12:04:10;99432.69;;;27.44;41.07
21234;BME280;10774;42.178;26.578;2022-07-10T12:06:37;99427.19;;;27.44;41.02
21234;BME280;10774;42.178;26.578;2022-07-10T12:09:08;99434.16;;;27.46;40.76
21234;BME280;10774;42.178;26.578;2022-07-10T12:11:34;99433.94;;;27.48;40.65
21234;BME280;10774;42.178;26.578;2022-07-10T12:14:17;99432.28;;;27.40;41.25
21234;BME280;10774;42.178;26.578;2022-07-10T12:16:48;99439.47;;;27.48;41.03
21234;BME280;10774;42.178;26.578;2022-07-10T12:19:16;99439.22;;;27.49;40.83
21234;BME280;10774;42.178;26.578;2022-07-10T12:21:43;99426.03;;;27.13;41.60
21234;BME280;10774;42.178;26.578;2022-07-10T12:24:09;99433.66;;;27.18;41.16
21234;BME280;10774;42.178;26.578;2022-07-10T12:26:36;99433.28;;;27.01;41.63
21234;BME280;10774;42.178;26.578;2022-07-10T12:29:03;99444.66;;;27.24;41.26
21234;BME280;10774;42.178;26.578;2022-07-10T12:31:31;99438.72;;;27.21;41.46
21234;BME280;10774;42.178;26.578;2022-07-10T12:34:04;99434.00;;;27.34;40.76
21234;BME280;10774;42.178;26.578;2022-07-10T12:36:49;99440.41;;;27.28;41.29
21234;BME280;10774;42.178;26.578;2022-07-10T12:39:24;99435.22;;;27.83;40.70
21234;BME280;10774;42.178;26.578;2022-07-10T12:42:03;99434.78;;;27.48;40.10
21234;BME280;10774;42.178;26.578;2022-07-10T12:44:40;99417.06;;;27.69;40.19
21234;BME280;10774;42.178;26.578;2022-07-10T12:47:22;99419.13;;;27.80;40.22
21234;BME280;10774;42.178;26.578;2022-07-10T12:50:17;99432.47;;;27.83;40.78
21234;BME280;10774;42.178;26.578;2022-07-10T12:52:46;99431.31;;;27.98;40.50
21234;BME280;10774;42.178;26.578;2022-07-10T12:57:58;99428.41;;;27.54;39.56
21234;BME280;10774;42.178;26.578;2022-07-10T13:00:26;99423.63;;;27.68;39.38
21234;BME280;10774;42.178;26.578;2022-07-10T13:03:03;99433.97;;;28.11;38.85
21234;BME280;10774;42.178;26.578;2022-07-10T13:05:30;99434.31;;;28.21;39.08
21234;BME280;10774;42.178;26.578;2022-07-10T13:08:18;99422.59;;;28.01;39.40
21234;BME280;10774;42.178;26.578;2022-07-10T13:11:03;99410.72;;;28.00;39.86
21234;BME280;10774;42.178;26.578;2022-07-10T13:13:28;99425.94;;;28.59;38.69
21234;BME280;10774;42.178;26.578;2022-07-10T13:15:54;99410.88;;;28.30;39.32
21234;BME280;10774;42.178;26.578;2022-07-10T13:18:23;99405.16;;;28.07;39.51
21234;BME280;10774;42.178;26.578;2022-07-10T13:20:51;99408.44;;;28.65;38.34
21234;BME280;10774;42.178;26.578;2022-07-10T13:23:17;99396.88;;;29.12;37.54
21234;BME280;10774;42.178;26.578;2022-07-10T13:25:48;99421.09;;;28.73;37.67
21234;BME280;10774;42.178;26.578;2022-07-10T13:28:14;99401.47;;;29.00;37.55